Elberton, GA (30635)

12:05 AM EDT on July 24, 2014 (GMT -0400)
KGAELBER3 Elev 627 ft | 34.16 °N, 82.86 °W | Change Station

Current weather conditions updated 3 seconds ago

Partly Cloudy
Partly Cloudy
76.6 °F
Feels Like 78 °F
N
0.0
Wind Variable Wind from East
Gusts 0.0 mph

Today is forecast to be nearly the same temperature as yesterday.

Today
High -- | Low -- °F
--% Chance of Precip.
Yesterday
High -- | Low -- °F
Precip. -- in
6:36 AM 8:38 PM
Waning Crescent, 7% visible
Pressure 29.99 in
Visibility 10.0 miles
Clouds Clear
Heat Index 78 °F
Dew Point 72 °F
Humidity 85%
Rainfall 0.00 in
Snow Depth Not available.
UV 0 out of 12
Pollen 3.50 out of 12
Air Quality Not available.
Flu Activity Not available.
METAR KIIY 240355Z AUTO 24004KT 10SM CLR 27/27 A2999 RMK AO2

More Conditions Fewer Conditions

Pressure 29.99 in
Visibility 10.0 miles
Clouds Clear
Heat Index 78 °F
Dew Point 72 °F
Humidity 85%
Rainfall 0.00 in
Snow Depth Not available.
UV 0 out of 12
Pollen 3.50 out of 12
Air Quality Not available.
Flu Activity Not available.
METAR KIIY 240355Z AUTO 24004KT 10SM CLR 27/27 A2999 RMK AO2

More Conditions Fewer Conditions

10-Day Weather Forecast

Almanac

Astronomy

Jul. 24, 2014 Rise Set
Actual Time 6:36 AM EDT 8:38 PM EDT
Civil Twilight 6:09 AM EDT 9:06 PM EDT
Nautical Twilight 5:34 AM EDT 9:40 PM EDT
Astronomical Twilight 4:58 AM EDT 10:16 PM EDT
Moon 4:43 AM EDT 6:54 PM EDT
Length of Visible Light 14h 57m
Length of Day
14h 01m
Tomorrow will be 1m 23s shorter.
Waning Crescent, 7% of the Moon is Illuminated
Today
Waning Crescent
Jul 26
New
Aug 3
First Quarter
Aug 10
Full
Aug 17
Last Quarter

Yesterday's Extremes

State Highs State Lows

Community

WunderPhotos

Upload Photos

1,736,891 photos uploaded!

Nearby

Snow Depth

Station Depth Elevation
No new snow has been reported.

Earthquake Activity

City Distance Mag. Time & Date
No recent earthquake activity has been reported nearby.
Minimum magnitude displayed is 2.5.

Coastal Water Temperatures

Place Temperature
No Stations Reporting

Nearby Weather Stations

Station Location Temp. Heat Index Dew Point Humidity Wind Precip. Elev Updated Type
Elberton, GA 76.6 °F 78 °F 72 °F 85% East  at  0.0 mph 0.00 in / hr 627 ft 12:05 AM EDT Rapid Fire
Carrie Craft Road, Bowersville, GA 72.4 °F - 70 °F 93% SSW  at  0.0 mph 0.00 in / hr 865 ft 12:05 AM EDT Rapid Fire
D-Ville, Danielsville, GA 74.8 °F 75 °F 69 °F 83% ESE  at  0.0 mph 0.00 in / hr 781 ft 12:05 AM EDT Rapid Fire
RAWS WASHINGTON GA, Tignall, GA 78 °F 80 °F 71 °F 80% SSW  at  2 mph 0.00 in / hr 616 ft 11:02 PM EDT MADIS
Lee Shoals, SC 73.6 °F - 73 °F 98% SW  at  1.6 mph 0.01 in / hr 682 ft 12:05 AM EDT Normal

Show More Stations Show Fewer Stations